FAPP

Polokwane International Airport

Potgietersrus, South Africa
METAR FAPP 231200Z 04010KT CAVOK 20/02 Q1030 NOSIG
Observed Flight Rules
Oct-23 @ 12:00 UTC (15 minutes ago) Visual Flight Rules
Wind Visibility Clouds
40° at 10 knots 10,000+ meters
  • Clear skies
Temperatures Readings
Current 20°C / 68°F
Dewpoint 2°C / 36°F
Humidity 30%
Altimeter 30.41" Hg
Pressure 1030 hPa
Elevation 1242
METAR FAPP 231200Z 04010KT CAVOK 20/02 Q1030 NOSIG
Observed Flight Rules
Oct-23 @ 12:00 UTC
(15 minutes ago)
VFR
Wind Visibility
40° at 10 knots 10,000+ meters
Clouds
  • Clear skies
Temperature Dewpoint
20°C / 68°F 2°C / 36°F
Humidity Altimeter Pressure
30% 30.41" Hg 1030 hPa